KMIB/MIB METAR and TAF weather

Enter ICAO airport designator
Station Type Date Time Source
KMIB METAR 2022/11/30 09:55 UTC NOAA

KMIB 300955Z 34020G27KT 10SM CLR M15/M18 A3001 RMK AO2A PK WND 33030/00 SLP205 T11491184 $


Station Type Date Time Source
KMIB Decoded METAR 2022/11/30 09:55 UTC NOAA

Minot Air Force Base, ND, United States (KMIB) 48-25N 101-21W
Nov 30, 2022 - 04:55 AM EST / 2022.11.30 0955 UTC
Wind: from the NNW (340 degrees) at 23 MPH (20 KT) gusting to 31 MPH (27 KT):0
Visibility: 10 mile(s):0
Sky conditions: clear
Temperature: 5.2 F (-14.9 C)
Windchill: -16 F (-27 C):2
Dew Point: -1.1 F (-18.4 C)
Relative Humidity: 74%
Pressure (altimeter): 30.01 in. Hg (1016 hPa)
ob: KMIB 300955Z 34020G27KT 10SM CLR M15/M18 A3001 RMK AO2A PK WND 33030/00 SLP205 T11491184
cycle: 10

Station Type Date Time Source
KMIB TAF 2022/11/30 09:24 UTC NOAA

TAF KMIB 300900Z 3009/0115 32015G25KT 9999 BKN020 620205 QNH2998INS
BECMG 3011/3012 30010G15KT 9999 SCT030 QNH3002INS
BECMG 3017/3018 29009KT 9999 FEW030 QNH3010INS
BECMG 3023/3024 13009KT 9999 SCT120 QNH3002INS
BECMG 0107/0108 13009KT 9999 BKN060 QNH2987INS TXM09/3021Z TNM19/3012Z

Example: see airport list